createdAt,value
2018-04-25T00:02:09.150Z,16.66
2018-04-25T00:04:36.611Z,16.57
2018-04-25T00:07:04.085Z,16.52
2018-04-25T00:09:31.600Z,16.46
2018-04-25T00:11:59.317Z,16.41
2018-04-25T00:14:26.797Z,16.38
2018-04-25T00:16:54.251Z,16.33
2018-04-25T00:19:21.728Z,16.27
2018-04-25T00:21:49.259Z,16.21
2018-04-25T00:24:16.781Z,16.19
2018-04-25T00:26:44.189Z,16.14
2018-04-25T00:29:11.653Z,16.06
2018-04-25T00:31:39.122Z,15.97
2018-04-25T00:34:06.617Z,15.88
2018-04-25T00:36:34.071Z,15.83
2018-04-25T00:39:01.523Z,15.78
2018-04-25T00:41:29.006Z,15.73
2018-04-25T00:43:56.468Z,15.67
2018-04-25T00:46:23.977Z,15.60
2018-04-25T00:48:51.433Z,15.58
2018-04-25T00:51:18.873Z,15.53
2018-04-25T00:53:46.364Z,15.49
2018-04-25T00:56:13.865Z,15.43
2018-04-25T00:58:41.363Z,15.45
2018-04-25T01:01:08.821Z,15.44
2018-04-25T01:03:36.290Z,15.40
2018-04-25T01:06:03.777Z,15.35
2018-04-25T01:08:31.315Z,15.31
2018-04-25T01:10:58.786Z,15.25
2018-04-25T01:13:26.260Z,15.23
2018-04-25T01:15:53.733Z,15.22
2018-04-25T01:18:21.223Z,15.15
2018-04-25T01:20:48.728Z,15.09
2018-04-25T01:23:22.057Z,15.03
2018-04-25T01:25:49.552Z,14.99
2018-04-25T01:28:22.843Z,14.99
2018-04-25T01:31:06.158Z,15.09
2018-04-25T01:33:35.452Z,15.15
2018-04-25T01:36:06.562Z,15.13
2018-04-25T01:38:34.101Z,15.14
2018-04-25T01:41:15.557Z,15.13
2018-04-25T01:43:45.811Z,15.04
2018-04-25T01:46:16.873Z,15.13
2018-04-25T01:49:02.801Z,15.10
2018-04-25T01:51:41.965Z,15.02
2018-04-25T01:54:21.255Z,15.02
2018-04-25T01:57:00.597Z,15.00
2018-04-25T01:59:39.896Z,15.01
2018-04-25T02:02:06.825Z,14.92
2018-04-25T02:04:35.650Z,14.81
2018-04-25T02:07:03.153Z,14.75
2018-04-25T02:09:30.652Z,14.71
2018-04-25T02:11:58.114Z,14.69
2018-04-25T02:14:25.596Z,14.71
2018-04-25T02:16:53.098Z,14.81
2018-04-25T02:19:20.565Z,14.78
2018-04-25T02:21:48.041Z,14.73
2018-04-25T02:24:15.502Z,14.67
2018-04-25T02:26:43.031Z,14.64
2018-04-25T02:29:10.505Z,14.61
2018-04-25T02:31:37.963Z,14.55
2018-04-25T02:34:05.499Z,14.49
2018-04-25T02:36:32.997Z,14.44
2018-04-25T02:39:00.476Z,14.43
2018-04-25T02:41:27.957Z,14.39
2018-04-25T02:43:55.466Z,14.40
2018-04-25T02:46:22.915Z,14.38
2018-04-25T02:48:50.388Z,14.46
2018-04-25T02:51:17.864Z,14.47
2018-04-25T02:53:45.329Z,14.43
2018-04-25T02:56:12.811Z,14.44
2018-04-25T02:58:40.314Z,14.45
2018-04-25T03:01:08.227Z,14.42
2018-04-25T03:03:36.089Z,14.40
2018-04-25T03:06:04.803Z,14.40
2018-04-25T03:08:32.278Z,14.41
2018-04-25T03:10:59.861Z,14.47
2018-04-25T03:13:27.771Z,14.39
2018-04-25T03:15:55.235Z,14.34
2018-04-25T03:18:22.681Z,14.30
2018-04-25T03:20:50.150Z,14.35
2018-04-25T03:23:17.687Z,14.37
2018-04-25T03:25:45.222Z,14.39
2018-04-25T03:28:12.639Z,14.33
2018-04-25T03:30:40.083Z,14.31
2018-04-25T03:33:07.562Z,14.26
2018-04-25T03:35:35.052Z,14.23
2018-04-25T03:38:02.542Z,14.20
2018-04-25T03:40:30.042Z,14.15
2018-04-25T03:42:57.503Z,14.16
2018-04-25T03:45:25.077Z,14.14
2018-04-25T03:47:52.541Z,14.20
2018-04-25T03:50:20.006Z,14.18
2018-04-25T03:52:47.516Z,14.26
2018-04-25T03:55:14.985Z,14.20
2018-04-25T03:57:42.446Z,14.26
2018-04-25T04:00:09.902Z,14.22
2018-04-25T04:02:37.407Z,14.28
2018-04-25T04:05:05.498Z,14.26
2018-04-25T04:07:32.988Z,14.36
2018-04-25T04:10:00.471Z,14.37
2018-04-25T04:12:27.934Z,14.41
2018-04-25T04:14:55.403Z,14.47
2018-04-25T04:17:22.935Z,14.48
2018-04-25T04:19:50.497Z,14.54
2018-04-25T04:22:18.025Z,14.63
2018-04-25T04:24:45.517Z,14.70
2018-04-25T04:27:12.978Z,14.77
2018-04-25T04:29:40.446Z,14.79
2018-04-25T04:32:08.822Z,14.79
2018-04-25T04:34:36.331Z,14.89
2018-04-25T04:37:04.119Z,14.92
2018-04-25T04:39:31.576Z,14.93
2018-04-25T04:41:59.062Z,14.96
2018-04-25T04:44:26.523Z,15.06
2018-04-25T04:46:53.978Z,15.09
2018-04-25T04:49:21.518Z,15.19
2018-04-25T04:51:49.195Z,15.22
2018-04-25T04:54:16.675Z,15.25
2018-04-25T04:56:44.189Z,15.33
2018-04-25T04:59:11.667Z,15.39
2018-04-25T05:01:39.143Z,15.51
2018-04-25T05:04:06.619Z,15.51
2018-04-25T05:06:34.082Z,15.62
2018-04-25T05:09:01.557Z,15.68
2018-04-25T05:11:29.043Z,15.80
2018-04-25T05:13:56.510Z,15.90
2018-04-25T05:16:23.984Z,16.04
2018-04-25T05:18:51.481Z,16.17
2018-04-25T05:21:18.931Z,16.17
2018-04-25T05:23:46.430Z,16.22
2018-04-25T05:26:13.930Z,16.35
2018-04-25T05:28:41.379Z,16.40
2018-04-25T05:31:08.859Z,16.55
2018-04-25T05:33:36.323Z,16.64
2018-04-25T05:36:03.816Z,16.75
2018-04-25T05:38:31.360Z,16.82
2018-04-25T05:40:58.823Z,16.95
2018-04-25T05:43:26.285Z,16.95
2018-04-25T05:45:53.763Z,17.02
2018-04-25T05:48:21.254Z,17.11
2018-04-25T05:50:48.713Z,17.14
2018-04-25T05:53:16.202Z,17.21
2018-04-25T05:55:44.572Z,17.33
2018-04-25T05:58:12.048Z,17.45
2018-04-25T06:00:39.530Z,17.61
2018-04-25T06:03:07.002Z,17.70
2018-04-25T06:05:34.541Z,17.81
2018-04-25T06:08:02.023Z,17.94
2018-04-25T06:10:29.511Z,18.05
2018-04-25T06:12:57.000Z,18.13
2018-04-25T06:15:24.468Z,18.15
2018-04-25T06:17:51.937Z,18.13
2018-04-25T06:20:19.463Z,18.23
2018-04-25T06:22:46.878Z,18.35
2018-04-25T06:25:14.343Z,18.49
2018-04-25T06:27:41.801Z,18.60
2018-04-25T06:30:09.283Z,18.67
2018-04-25T06:32:36.767Z,18.80
2018-04-25T06:35:04.245Z,18.93
2018-04-25T06:37:31.736Z,19.02
2018-04-25T06:39:59.202Z,19.13
2018-04-25T06:42:26.664Z,19.20
2018-04-25T06:44:54.174Z,19.27
2018-04-25T06:47:21.648Z,19.35
2018-04-25T06:49:49.134Z,19.37
2018-04-25T06:52:16.607Z,19.49
2018-04-25T06:54:44.132Z,19.63
2018-04-25T06:57:11.598Z,19.74
2018-04-25T06:59:39.089Z,19.86
2018-04-25T07:02:06.586Z,19.93
2018-04-25T07:04:34.063Z,20.07
2018-04-25T07:07:01.530Z,20.21
2018-04-25T07:09:29.022Z,20.31
2018-04-25T07:11:56.507Z,20.42
2018-04-25T07:14:23.982Z,20.52
2018-04-25T07:16:51.457Z,20.58
2018-04-25T07:19:18.938Z,20.62
2018-04-25T07:21:46.402Z,20.82
2018-04-25T07:24:13.879Z,20.95
2018-04-25T07:26:41.378Z,21.04
2018-04-25T07:29:08.862Z,21.15
2018-04-25T07:31:36.362Z,21.21
2018-04-25T07:34:03.889Z,21.29
2018-04-25T07:36:31.361Z,21.39
2018-04-25T07:38:58.836Z,21.43
2018-04-25T07:41:26.317Z,21.50
2018-04-25T07:43:53.815Z,21.56
2018-04-25T07:46:21.285Z,21.67
2018-04-25T07:48:48.762Z,21.77
2018-04-25T07:51:16.214Z,21.76
2018-04-25T07:53:43.732Z,21.82
2018-04-25T07:56:11.276Z,21.91
2018-04-25T07:58:38.740Z,22.04
2018-04-25T08:01:06.251Z,22.23
2018-04-25T08:03:33.826Z,22.32
2018-04-25T08:06:01.340Z,22.42
2018-04-25T08:08:28.822Z,22.53
2018-04-25T08:10:56.338Z,22.57
2018-04-25T08:13:35.568Z,22.66
2018-04-25T08:16:14.719Z,22.83
2018-04-25T08:18:53.887Z,22.85
2018-04-25T08:21:40.956Z,23.01
2018-04-25T08:24:08.446Z,23.09
2018-04-25T08:26:35.952Z,23.21
2018-04-25T08:29:03.433Z,23.24
2018-04-25T08:31:31.080Z,23.40
2018-04-25T08:33:58.551Z,23.57
2018-04-25T08:36:26.010Z,23.83
2018-04-25T08:38:53.474Z,24.03
2018-04-25T08:41:21.008Z,24.20
2018-04-25T08:43:48.398Z,24.22
2018-04-25T08:46:15.862Z,24.33
2018-04-25T08:48:43.325Z,24.43
2018-04-25T08:51:10.783Z,24.67
2018-04-25T08:53:38.250Z,24.82
2018-04-25T08:56:05.922Z,24.97
2018-04-25T08:58:33.415Z,25.14
2018-04-25T09:01:00.992Z,25.26
2018-04-25T09:03:28.451Z,25.31
2018-04-25T09:05:55.913Z,25.15
2018-04-25T09:08:23.373Z,25.26
2018-04-25T09:10:50.834Z,25.45
2018-04-25T09:13:18.377Z,25.39
2018-04-25T09:15:45.820Z,25.54
2018-04-25T09:18:13.891Z,25.31
2018-04-25T09:20:41.390Z,25.21
2018-04-25T09:23:08.878Z,25.36
2018-04-25T09:25:36.340Z,25.50
2018-04-25T09:28:03.906Z,25.56
2018-04-25T09:30:31.399Z,25.64
2018-04-25T09:32:58.856Z,25.79
2018-04-25T09:35:26.338Z,25.89
2018-04-25T09:37:53.871Z,26.03
2018-04-25T09:40:21.338Z,25.98
2018-04-25T09:42:48.799Z,26.13
2018-04-25T09:45:16.266Z,26.26
2018-04-25T09:47:43.811Z,26.33
2018-04-25T09:50:11.284Z,26.42
2018-04-25T09:52:39.244Z,26.32
2018-04-25T09:55:06.709Z,26.41
2018-04-25T09:57:34.189Z,26.27
2018-04-25T10:00:01.684Z,26.39
2018-04-25T10:02:34.067Z,26.55
2018-04-25T10:05:01.546Z,26.39
2018-04-25T10:07:29.026Z,26.47
2018-04-25T10:09:56.494Z,26.18
2018-04-25T10:12:23.989Z,25.89
2018-04-25T10:14:51.476Z,25.84
2018-04-25T10:17:19.000Z,25.83
2018-04-25T10:19:46.440Z,25.81
2018-04-25T10:22:13.877Z,25.93
2018-04-25T10:24:41.324Z,25.89
2018-04-25T10:27:08.785Z,26.14
2018-04-25T10:29:36.246Z,26.39
2018-04-25T10:32:03.790Z,26.33
2018-04-25T10:34:31.211Z,26.19
2018-04-25T10:36:58.654Z,26.37
2018-04-25T10:39:26.111Z,26.41
2018-04-25T10:41:53.634Z,26.45
2018-04-25T10:44:21.094Z,26.19
2018-04-25T10:46:48.556Z,26.38
2018-04-25T10:49:16.026Z,26.18
2018-04-25T10:51:43.477Z,26.11
2018-04-25T10:54:10.930Z,26.17
2018-04-25T10:56:39.415Z,26.06
2018-04-25T10:59:06.891Z,26.19
2018-04-25T11:01:34.501Z,26.43
2018-04-25T11:04:02.006Z,26.55
2018-04-25T11:06:29.498Z,26.76
2018-04-25T11:08:56.997Z,27.05
2018-04-25T11:11:24.473Z,27.15
2018-04-25T11:13:52.075Z,26.69
2018-04-25T11:16:19.532Z,26.57
2018-04-25T11:18:46.990Z,26.25
2018-04-25T11:21:14.446Z,26.18
2018-04-25T11:23:41.930Z,26.04
2018-04-25T11:26:09.446Z,26.14
2018-04-25T11:28:36.923Z,26.42
2018-04-25T11:31:05.265Z,26.10
2018-04-25T11:33:32.731Z,26.13
2018-04-25T11:36:00.197Z,26.13
2018-04-25T11:38:27.731Z,26.18
2018-04-25T11:40:55.214Z,26.42
2018-04-25T11:43:22.701Z,26.53
2018-04-25T11:45:50.183Z,26.34
2018-04-25T11:48:17.645Z,26.20
2018-04-25T11:50:45.119Z,26.57
2018-04-25T11:53:12.579Z,26.27
2018-04-25T11:55:40.037Z,26.20
2018-04-25T11:58:07.506Z,26.35
2018-04-25T12:00:34.974Z,26.44
2018-04-25T12:03:02.462Z,26.61
2018-04-25T12:05:30.955Z,26.95
2018-04-25T12:07:58.406Z,27.00
2018-04-25T12:10:25.905Z,27.12
2018-04-25T12:12:53.517Z,26.88
2018-04-25T12:15:21.074Z,26.83
2018-04-25T12:17:48.544Z,27.18
2018-04-25T12:20:15.986Z,27.43
2018-04-25T12:22:43.500Z,27.64
2018-04-25T12:25:10.994Z,27.69
2018-04-25T12:27:38.444Z,27.36
2018-04-25T12:30:06.556Z,26.90
2018-04-25T12:32:34.047Z,27.46
2018-04-25T12:35:01.527Z,27.45
2018-04-25T12:37:29.002Z,27.57
2018-04-25T12:39:56.527Z,27.53
2018-04-25T12:42:24.013Z,27.33
2018-04-25T12:44:51.482Z,27.39
2018-04-25T12:47:19.020Z,27.55
2018-04-25T12:49:46.532Z,27.37
2018-04-25T12:52:14.020Z,27.23
2018-04-25T12:54:41.496Z,27.17
2018-04-25T12:57:08.968Z,27.50
2018-04-25T12:59:36.422Z,27.83
2018-04-25T13:02:03.924Z,27.68
2018-04-25T13:04:31.364Z,27.78
2018-04-25T13:06:59.727Z,27.81
2018-04-25T13:09:27.198Z,27.78
2018-04-25T13:11:54.672Z,27.89
2018-04-25T13:14:22.109Z,28.08
2018-04-25T13:16:49.572Z,28.30
2018-04-25T13:19:17.046Z,28.01
2018-04-25T13:21:44.515Z,28.67
2018-04-25T13:24:12.060Z,28.63
2018-04-25T13:26:39.586Z,28.97
2018-04-25T13:29:07.060Z,28.65
2018-04-25T13:31:34.541Z,28.90
2018-04-25T13:34:02.004Z,29.06
2018-04-25T13:36:29.552Z,29.09
2018-04-25T13:38:57.056Z,28.80
2018-04-25T13:41:24.509Z,29.01
2018-04-25T13:43:52.016Z,29.29
2018-04-25T13:46:19.571Z,29.27
2018-04-25T13:48:47.026Z,29.33
2018-04-25T13:51:14.509Z,29.30
2018-04-25T13:53:41.997Z,29.57
2018-04-25T13:56:09.466Z,29.62
2018-04-25T13:58:36.927Z,29.64
2018-04-25T14:01:05.700Z,29.75
2018-04-25T14:03:33.158Z,29.80
2018-04-25T14:06:00.752Z,30.23
2018-04-25T14:08:28.217Z,30.97
2018-04-25T14:10:55.684Z,31.13
2018-04-25T14:13:23.175Z,31.48
2018-04-25T14:15:50.618Z,31.26
2018-04-25T14:18:18.194Z,31.80
2018-04-25T14:20:45.743Z,31.77
2018-04-25T14:23:13.221Z,31.82
2018-04-25T14:25:40.706Z,31.42
2018-04-25T14:28:08.174Z,31.43
2018-04-25T14:30:35.626Z,31.48
2018-04-25T14:33:03.087Z,32.39
2018-04-25T14:35:30.577Z,32.36
2018-04-25T14:37:58.046Z,32.46
2018-04-25T14:40:25.503Z,33.81
2018-04-25T14:42:52.959Z,33.35
2018-04-25T14:45:20.423Z,33.67
2018-04-25T14:47:47.873Z,33.30
2018-04-25T14:50:15.349Z,33.48
2018-04-25T14:52:42.983Z,33.79
2018-04-25T14:55:10.452Z,34.35
2018-04-25T14:57:37.911Z,33.70
2018-04-25T15:00:05.734Z,34.10
2018-04-25T15:02:33.207Z,34.50
2018-04-25T15:05:00.697Z,34.82
2018-04-25T15:07:28.212Z,34.38
2018-04-25T15:09:55.665Z,34.28
2018-04-25T15:12:23.151Z,33.57
2018-04-25T15:14:50.629Z,34.58
2018-04-25T15:17:18.141Z,35.35
2018-04-25T15:19:45.718Z,36.00
2018-04-25T15:22:13.183Z,34.65
2018-04-25T15:24:40.643Z,35.15
2018-04-25T15:27:08.546Z,35.80
2018-04-25T15:29:36.077Z,36.53
2018-04-25T15:32:03.984Z,37.26
2018-04-25T15:34:31.475Z,37.03
2018-04-25T15:36:59.138Z,36.99
2018-04-25T15:39:26.653Z,36.63
2018-04-25T15:41:54.412Z,36.87
2018-04-25T15:44:21.866Z,36.98
2018-04-25T15:46:49.339Z,36.76
2018-04-25T15:49:16.807Z,37.43
2018-04-25T15:51:44.335Z,36.55
2018-04-25T15:54:11.818Z,36.41
2018-04-25T15:56:39.338Z,35.69
2018-04-25T15:59:06.804Z,35.99
2018-04-25T16:01:34.256Z,36.04
2018-04-25T16:04:01.729Z,35.29
2018-04-25T16:06:29.192Z,34.38
2018-04-25T16:08:56.659Z,35.02
2018-04-25T16:11:24.169Z,34.96
2018-04-25T16:13:52.655Z,35.24
2018-04-25T16:16:20.214Z,35.72
2018-04-25T16:18:47.686Z,35.97
2018-04-25T16:21:15.271Z,35.59
2018-04-25T16:23:42.685Z,35.09
2018-04-25T16:26:10.164Z,34.33
2018-04-25T16:28:37.622Z,34.53
2018-04-25T16:31:06.236Z,33.67
2018-04-25T16:33:33.647Z,33.26
2018-04-25T16:36:01.217Z,33.22
2018-04-25T16:38:28.696Z,33.46
2018-04-25T16:40:56.298Z,34.15
2018-04-25T16:43:23.820Z,34.41
2018-04-25T16:45:51.274Z,34.12
2018-04-25T16:48:18.762Z,34.01
2018-04-25T16:50:46.494Z,33.17
2018-04-25T16:53:13.954Z,33.21
2018-04-25T16:55:41.415Z,32.56
2018-04-25T16:58:08.898Z,32.67
2018-04-25T17:00:36.375Z,32.67
2018-04-25T17:03:03.926Z,32.00
2018-04-25T17:05:31.570Z,32.44
2018-04-25T17:07:59.039Z,32.95
2018-04-25T17:10:26.501Z,33.18
2018-04-25T17:12:54.372Z,33.37
2018-04-25T17:15:21.845Z,33.27
2018-04-25T17:17:49.311Z,32.93
2018-04-25T17:20:16.774Z,32.79
2018-04-25T17:22:44.269Z,32.64
2018-04-25T17:25:11.736Z,32.44
2018-04-25T17:27:39.214Z,32.05
2018-04-25T17:30:06.680Z,31.52
2018-04-25T17:32:34.214Z,31.21
2018-04-25T17:35:01.682Z,30.37
2018-04-25T17:37:29.194Z,29.56
2018-04-25T17:39:56.677Z,28.81
2018-04-25T17:42:24.153Z,28.23
2018-04-25T17:44:52.326Z,27.78
2018-04-25T17:47:19.783Z,27.43
2018-04-25T17:49:47.282Z,26.98
2018-04-25T17:52:14.775Z,26.57
2018-04-25T17:54:42.295Z,26.20
2018-04-25T17:57:11.082Z,25.93
2018-04-25T17:59:39.315Z,25.67
2018-04-25T18:02:07.136Z,25.47
2018-04-25T18:04:34.618Z,25.25
2018-04-25T18:07:02.094Z,25.07
2018-04-25T18:09:29.553Z,24.86
2018-04-25T18:11:56.994Z,24.72
2018-04-25T18:14:24.487Z,24.62
2018-04-25T18:16:52.017Z,24.47
2018-04-25T18:19:19.462Z,24.38
2018-04-25T18:21:46.938Z,24.25
2018-04-25T18:24:14.404Z,24.13
2018-04-25T18:26:41.911Z,23.99
2018-04-25T18:29:09.409Z,23.91
2018-04-25T18:31:37.508Z,23.78
2018-04-25T18:34:05.080Z,23.69
2018-04-25T18:36:32.590Z,23.63
2018-04-25T18:39:00.100Z,23.61
2018-04-25T18:41:27.618Z,23.73
2018-04-25T18:43:55.163Z,23.64
2018-04-25T18:46:22.632Z,23.58
2018-04-25T18:48:50.105Z,23.65
2018-04-25T18:51:17.574Z,23.67
2018-04-25T18:53:45.069Z,23.72
2018-04-25T18:56:12.540Z,23.81
2018-04-25T18:58:40.010Z,23.72
2018-04-25T19:01:07.595Z,23.65
2018-04-25T19:03:35.090Z,23.67
2018-04-25T19:06:02.559Z,23.61
2018-04-25T19:08:30.105Z,23.53
2018-04-25T19:10:57.589Z,23.55
2018-04-25T19:13:25.074Z,23.50
2018-04-25T19:15:52.572Z,23.47
2018-04-25T19:18:20.132Z,23.47
2018-04-25T19:20:47.653Z,23.42
2018-04-25T19:23:15.485Z,23.41
2018-04-25T19:25:43.623Z,23.38
2018-04-25T19:28:11.107Z,23.34
2018-04-25T19:30:38.620Z,23.32
2018-04-25T19:33:06.106Z,23.31
2018-04-25T19:35:33.584Z,23.25
2018-04-25T19:38:01.172Z,23.49
2018-04-25T19:40:28.714Z,23.42
2018-04-25T19:42:56.234Z,23.40
2018-04-25T19:45:23.874Z,23.33
2018-04-25T19:47:51.348Z,23.23
2018-04-25T19:50:18.839Z,23.22
2018-04-25T19:52:46.363Z,23.18
2018-04-25T19:55:14.167Z,23.09
2018-04-25T19:57:41.655Z,22.99
2018-04-25T20:00:09.136Z,23.00
2018-04-25T20:02:36.688Z,22.99
2018-04-25T20:05:04.254Z,22.88
2018-04-25T20:07:31.768Z,22.79
2018-04-25T20:09:59.287Z,22.81
2018-04-25T20:12:27.360Z,22.82
2018-04-25T20:14:54.856Z,22.76
2018-04-25T20:17:22.470Z,22.90
2018-04-25T20:19:50.031Z,23.25
2018-04-25T20:22:17.532Z,23.19
2018-04-25T20:24:45.098Z,23.15
2018-04-25T20:27:12.850Z,23.05
2018-04-25T20:29:40.400Z,22.91
2018-04-25T20:32:07.825Z,22.85
2018-04-25T20:34:35.567Z,22.73
2018-04-25T20:37:03.042Z,22.68
2018-04-25T20:39:30.560Z,22.57
2018-04-25T20:41:58.176Z,22.56
2018-04-25T20:44:25.703Z,22.45
2018-04-25T20:46:53.290Z,22.52
2018-04-25T20:49:20.772Z,22.43
2018-04-25T20:51:48.235Z,22.29
2018-04-25T20:54:15.760Z,22.30
2018-04-25T20:56:43.228Z,22.20
2018-04-25T20:59:10.844Z,22.12
2018-04-25T21:01:38.318Z,22.02
2018-04-25T21:04:09.933Z,22.01
2018-04-25T21:06:37.462Z,22.00
2018-04-25T21:09:04.962Z,21.86
2018-04-25T21:11:32.430Z,21.91
2018-04-25T21:13:59.898Z,21.91
2018-04-25T21:16:27.387Z,21.85
2018-04-25T21:18:54.852Z,21.77
2018-04-25T21:21:22.338Z,21.70
2018-04-25T21:23:49.942Z,21.61
2018-04-25T21:26:17.399Z,21.49
2018-04-25T21:28:44.887Z,21.47
2018-04-25T21:31:12.859Z,21.46
2018-04-25T21:33:40.343Z,21.35
2018-04-25T21:36:07.853Z,21.31
2018-04-25T21:38:35.379Z,21.25
2018-04-25T21:41:02.888Z,21.21
2018-04-25T21:43:30.360Z,21.13
2018-04-25T21:45:57.876Z,21.11
2018-04-25T21:48:25.377Z,21.22
2018-04-25T21:50:52.836Z,21.19
2018-04-25T21:53:20.335Z,21.08
2018-04-25T21:55:47.823Z,21.07
2018-04-25T21:58:15.283Z,21.06
2018-04-25T22:00:42.735Z,21.04
2018-04-25T22:03:10.209Z,21.09
2018-04-25T22:05:37.690Z,21.02
2018-04-25T22:08:05.247Z,21.01
2018-04-25T22:10:32.737Z,20.99
2018-04-25T22:13:00.270Z,20.95
2018-04-25T22:15:27.719Z,20.93
2018-04-25T22:17:55.201Z,20.89
2018-04-25T22:20:22.656Z,20.95
2018-04-25T22:22:50.225Z,20.89
2018-04-25T22:25:17.720Z,20.94
2018-04-25T22:27:45.191Z,20.94
2018-04-25T22:30:12.701Z,20.86
2018-04-25T22:32:40.213Z,20.76
2018-04-25T22:35:07.689Z,20.82
2018-04-25T22:37:35.189Z,20.89
2018-04-25T22:40:02.683Z,20.75
2018-04-25T22:42:30.180Z,20.61
2018-04-25T22:44:57.647Z,20.48
2018-04-25T22:47:25.131Z,20.44
2018-04-25T22:49:52.665Z,20.48
2018-04-25T22:52:20.098Z,20.59
2018-04-25T22:54:47.656Z,20.63
2018-04-25T22:57:15.133Z,20.59
2018-04-25T22:59:42.624Z,20.51
2018-04-25T23:02:10.105Z,20.37
2018-04-25T23:04:37.577Z,20.28
2018-04-25T23:07:05.188Z,20.19
2018-04-25T23:09:33.713Z,20.10
2018-04-25T23:12:01.207Z,20.04
2018-04-25T23:14:28.683Z,19.96
2018-04-25T23:16:56.156Z,19.94
2018-04-25T23:19:23.646Z,19.88
2018-04-25T23:21:51.107Z,20.10
2018-04-25T23:24:18.615Z,20.23
2018-04-25T23:26:46.229Z,20.39
2018-04-25T23:29:13.780Z,20.38
2018-04-25T23:31:41.273Z,20.31
2018-04-25T23:34:08.796Z,20.44
2018-04-25T23:36:36.291Z,20.33
2018-04-25T23:39:03.858Z,20.38
2018-04-25T23:41:31.589Z,20.32
2018-04-25T23:43:59.186Z,20.25
2018-04-25T23:46:26.643Z,20.30
2018-04-25T23:48:54.121Z,20.35
2018-04-25T23:51:21.613Z,20.39
2018-04-25T23:53:49.124Z,20.44
2018-04-25T23:56:16.619Z,20.48
2018-04-25T23:58:44.327Z,20.49
